Time;durP1;ratioP1;P1;durP2;ratioP2;P2;SDS_P1;SDS_P2;PMS_P1;PMS_P2;Temp;Humidity;BMP_temperature;BMP_pressure;BME280_temperature;BME280_humidity;BME280_pressure;Samples;Min_cycle;Max_cycle;Signal;HPM_P1;HPM_P2
2022/08/11 00:01:52;;;;;;;5.27;4.17;;;;;;;26.61;44.12;102423.88;5014526;28;20079;-72
2022/08/11 00:04:22;;;;;;;8.38;3.97;;;;;;;26.75;44.10;102425.63;5014151;28;20038;-71
2022/08/11 00:06:49;;;;;;;10.60;4.50;;;;;;;26.80;43.95;102422.00;5014793;28;20505;-70
2022/08/11 00:09:20;;;;;;;12.60;3.72;;;;;;;26.36;45.09;102415.91;5014067;28;20042;-71
2022/08/11 00:11:48;;;;;;;7.30;3.97;;;;;;;26.32;45.05;102415.63;5014062;28;20038;-74
2022/08/11 00:14:27;;;;;;;6.25;4.22;;;;;;;26.58;44.84;102421.69;4996623;28;20033;-70
2022/08/11 00:17:03;;;;;;;5.00;4.50;;;;;;;26.58;44.65;102419.75;5013773;28;20038;-69
2022/08/11 00:19:34;;;;;;;7.60;4.13;;;;;;;26.37;44.69;102414.75;5013617;28;20029;-72
2022/08/11 00:22:01;;;;;;;9.93;3.40;;;;;;;26.46;44.61;102411.06;5014184;28;20072;-71
2022/08/11 00:24:35;;;;;;;9.05;3.47;;;;;;;26.54;44.56;102412.34;5013866;28;20109;-70
2022/08/11 00:27:02;;;;;;;6.97;4.05;;;;;;;26.48;44.82;102414.34;5013687;28;20030;-72
2022/08/11 00:29:28;;;;;;;6.90;4.38;;;;;;;26.59;44.61;102415.91;5013689;28;20046;-70
2022/08/11 00:31:56;;;;;;;6.35;3.90;;;;;;;26.58;44.10;102417.00;5013700;28;20029;-71
2022/08/11 00:34:28;;;;;;;8.77;4.40;;;;;;;26.13;45.61;102420.25;5013542;28;20034;-71
2022/08/11 00:37:23;;;;;;;7.45;4.10;;;;;;;26.30;45.30;102426.13;5013478;28;20021;-70
2022/08/11 00:39:51;;;;;;;5.03;3.80;;;;;;;26.24;45.24;102413.50;4933589;29;20082;-69
2022/08/11 00:42:23;;;;;;;5.50;3.95;;;;;;;26.20;45.68;102415.22;4933438;29;20067;-71
2022/08/11 00:45:09;;;;;;;4.60;3.88;;;;;;;26.09;45.70;102409.00;4933263;29;20107;-70
2022/08/11 00:47:54;;;;;;;8.63;4.15;;;;;;;26.26;45.37;102413.25;4933247;29;20050;-71
2022/08/11 00:50:48;;;;;;;6.65;4.40;;;;;;;26.12;45.74;102413.13;4932749;29;20055;-68
2022/08/11 00:53:42;;;;;;;5.93;4.22;;;;;;;25.72;47.27;102422.53;4857554;29;20072;-69
2022/08/11 00:56:56;;;;;;;7.20;4.57;;;;;;;25.94;46.20;102417.38;4868798;29;20049;-69
2022/08/11 01:00:03;;;;;;;5.38;4.05;;;;;;;26.13;46.02;102427.69;4876368;29;20037;-69
2022/08/11 01:03:05;;;;;;;9.63;4.00;;;;;;;25.58;47.15;102420.72;4876259;29;20123;-69
2022/08/11 01:05:43;;;;;;;6.70;4.15;;;;;;;25.78;46.82;102420.56;4876753;29;20041;-68
2022/08/11 01:08:20;;;;;;;7.32;4.35;;;;;;;25.96;46.08;102422.59;4875676;29;20045;-68
2022/08/11 01:11:23;;;;;;;7.85;4.90;;;;;;;25.92;46.35;102421.53;4857082;29;20128;-69
2022/08/11 01:14:19;;;;;;;5.85;3.88;;;;;;;25.77;46.70;102427.16;4857278;29;20394;-68
2022/08/11 01:17:23;;;;;;;6.60;4.22;;;;;;;25.77;46.56;102419.72;4896645;29;20036;-69
2022/08/11 01:20:28;;;;;;;4.32;3.60;;;;;;;25.64;47.21;102420.41;4913343;29;20059;-69
2022/08/11 01:23:21;;;;;;;5.80;3.97;;;;;;;25.61;46.90;102423.72;4913262;29;20469;-68
2022/08/11 01:26:24;;;;;;;7.03;4.25;;;;;;;25.80;46.16;102419.16;4913377;29;20064;-69
2022/08/11 01:29:30;;;;;;;5.68;4.15;;;;;;;25.55;47.34;102419.34;4912971;29;20055;-70
2022/08/11 01:31:58;;;;;;;7.88;4.75;;;;;;;25.57;47.66;102424.59;4992520;28;20026;-70
2022/08/11 01:35:03;;;;;;;5.13;4.63;;;;;;;25.60;47.31;102421.25;4992566;28;20522;-69
2022/08/11 01:38:20;;;;;;;12.35;4.57;;;;;;;25.45;47.94;102433.22;4970170;28;20057;-70
2022/08/11 01:40:45;;;;;;;4.90;3.80;;;;;;;25.65;47.10;102427.53;4913031;29;20051;-70
2022/08/11 01:46:32;;;;;;;4.65;4.15;;;;;;;25.59;47.12;102434.19;4913419;29;20043;-68
2022/08/11 01:49:28;;;;;;;9.70;4.20;;;;;;;25.41;47.83;102428.56;4913430;29;20123;-69
2022/08/11 01:52:12;;;;;;;7.00;4.50;;;;;;;25.50;47.81;102427.66;4913449;29;20051;-69
2022/08/11 01:54:40;;;;;;;5.35;4.53;;;;;;;25.45;47.82;102416.69;4913035;29;20054;-69
2022/08/11 01:57:31;;;;;;;7.75;5.13;;;;;;;25.40;47.89;102421.38;4907329;29;20036;-69
2022/08/11 02:00:05;;;;;;;6.68;4.40;;;;;;;25.31;48.18;102425.84;4893776;29;20048;-70
2022/08/11 02:02:46;;;;;;;7.35;4.78;;;;;;;25.01;48.86;102424.09;4893847;29;20131;-68
2022/08/11 02:05:45;;;;;;;6.95;4.55;;;;;;;25.05;49.12;102426.00;4878486;29;20069;-69
2022/08/11 02:08:17;;;;;;;8.05;4.88;;;;;;;25.27;48.48;102420.91;4893706;29;20051;-68
2022/08/11 02:14:05;;;;;;;8.38;5.35;;;;;;;25.29;48.23;102409.63;4902497;29;20425;-69
2022/08/11 02:16:55;;;;;;;6.97;5.45;;;;;;;25.19;48.50;102410.50;4941588;28;20051;-70
2022/08/11 02:25:40;;;;;;;5.80;5.00;;;;;;;25.27;48.40;102406.31;5011729;28;20041;-68
2022/08/11 02:28:18;;;;;;;;;;;;;;;25.28;48.22;102411.53;5012104;28;20037;-68
2022/08/11 02:34:04;;;;;;;6.55;5.53;;;;;;;25.13;48.31;102394.31;5011683;28;20076;-69
2022/08/11 02:36:42;;;;;;;6.25;5.15;;;;;;;24.98;48.93;102408.16;5011437;28;20034;-68
2022/08/11 02:39:10;;;;;;;6.60;5.63;;;;;;;25.02;49.27;102403.75;5003163;28;20514;-68
2022/08/11 02:44:35;;;;;;;13.88;6.18;;;;;;;24.85;49.87;102400.50;5011270;28;20091;-68
2022/08/11 02:47:07;;;;;;;10.63;5.75;;;;;;;24.79;49.40;102405.22;5011394;28;20034;-67
2022/08/11 02:49:55;;;;;;;7.93;6.15;;;;;;;24.86;49.35;102403.00;5011139;28;20045;-69
2022/08/11 02:52:58;;;;;;;7.50;5.70;;;;;;;24.76;49.47;102405.78;4993554;28;20042;-67
2022/08/11 02:55:40;;;;;;;8.30;5.72;;;;;;;24.70;49.63;102404.13;4970060;28;20042;-68
2022/08/11 02:58:28;;;;;;;8.73;5.80;;;;;;;24.81;49.62;102399.44;4970109;28;20183;-69
2022/08/11 03:01:11;;;;;;;6.65;5.78;;;;;;;24.73;49.51;102394.50;4964433;28;20023;-68
2022/08/11 03:04:05;;;;;;;10.73;5.93;;;;;;;24.75;49.57;102398.63;4973429;28;20058;-67
2022/08/11 03:06:49;;;;;;;9.40;6.03;;;;;;;24.75;49.42;102398.63;4915654;29;20060;-68
2022/08/11 03:09:41;;;;;;;6.60;5.43;;;;;;;24.75;49.80;102401.38;4906717;29;20109;-69
2022/08/11 03:18:23;;;;;;;10.80;5.90;;;;;;;24.54;50.12;102409.97;4877843;29;20473;-69
2022/08/11 03:21:19;;;;;;;9.63;6.15;;;;;;;24.64;50.13;102404.44;4877721;29;20141;-68
2022/08/11 03:23:57;;;;;;;10.38;6.80;;;;;;;24.56;50.26;102405.00;4877551;29;20074;-68
2022/08/11 03:26:41;;;;;;;8.35;6.05;;;;;;;24.38;50.59;102401.78;4877626;29;20076;-67
2022/08/11 03:29:36;;;;;;;8.80;6.97;;;;;;;24.50;50.38;102395.97;4877672;29;20399;-69
2022/08/11 03:32:25;;;;;;;9.60;6.88;;;;;;;24.42;50.54;102397.38;4896186;29;20032;-69
2022/08/11 03:34:53;;;;;;;7.25;6.13;;;;;;;24.49;50.50;102393.50;4896678;29;20051;-68
2022/08/11 03:37:50;;;;;;;9.88;6.40;;;;;;;24.50;50.58;102400.63;4896481;29;20044;-69
2022/08/11 03:43:38;;;;;;;8.65;6.65;;;;;;;24.40;50.67;102393.25;4924006;28;20100;-68
2022/08/11 03:46:09;;;;;;;;;;;;;;;24.28;50.68;102393.56;4973495;28;20081;-68
2022/08/11 03:48:40;;;;;;;;;;;;;;;24.28;51.14;102395.47;4973013;28;19922;-69
2022/08/11 03:51:18;;;;;;;11.48;6.97;;;;;;;24.34;50.11;102392.44;4954866;28;19966;-69
2022/08/11 03:53:53;;;;;;;10.90;6.40;;;;;;;24.49;50.05;102399.81;4952811;29;20054;-68
2022/08/11 03:56:46;;;;;;;9.95;7.32;;;;;;;24.18;51.40;102393.56;4953024;29;20432;-69
2022/08/11 04:00:09;;;;;;;8.48;7.60;;;;;;;24.32;50.79;102391.06;4952967;29;20400;-69
2022/08/11 04:02:56;;;;;;;10.27;7.38;;;;;;;24.13;51.16;102382.63;4950506;29;20039;-68
2022/08/11 04:06:01;;;;;;;11.20;8.15;;;;;;;24.02;51.22;102391.13;4946878;29;20067;-69
2022/08/11 04:09:08;;;;;;;8.27;7.47;;;;;;;24.01;51.21;102386.72;4948433;28;20042;-69
2022/08/11 04:12:09;;;;;;;10.65;7.88;;;;;;;23.99;51.65;102384.25;5006967;28;20390;-70
2022/08/11 04:18:18;;;;;;;10.63;7.22;;;;;;;24.12;50.68;102389.19;4994070;28;20053;-69
2022/08/11 04:20:52;;;;;;;;;;;;;;;24.10;50.98;102383.16;4994448;28;20506;-69
2022/08/11 04:23:25;;;;;;;12.50;7.82;;;;;;;24.14;50.67;102388.91;5007234;28;19924;-68
2022/08/11 04:26:12;;;;;;;8.75;7.07;;;;;;;23.95;51.47;102385.91;5032990;28;20040;-69
2022/08/11 04:28:55;;;;;;;9.73;8.30;;;;;;;24.02;51.35;102385.63;5014953;28;20413;-69
2022/08/11 04:31:21;;;;;;;9.10;8.07;;;;;;;23.98;51.41;102379.03;5032804;28;20042;-69
2022/08/11 04:34:13;;;;;;;11.90;9.25;;;;;;;23.92;51.32;102377.41;5033097;28;20125;-69
2022/08/11 04:40:19;;;;;;;10.75;7.85;;;;;;;24.04;51.11;102384.25;5032912;28;20069;-69
2022/08/11 04:43:21;;;;;;;8.50;7.57;;;;;;;23.89;51.89;102383.44;5032642;28;20041;-69
2022/08/11 04:46:12;;;;;;;9.23;7.95;;;;;;;24.04;51.19;102380.69;5027824;28;20117;-68
2022/08/11 05:02:09;;;;;;;10.18;8.30;;;;;;;24.00;51.35;102377.66;4975041;28;20091;-68
2022/08/11 05:05:31;;;;;;;11.52;8.70;;;;;;;24.06;50.98;102379.31;4969983;28;20102;-69
2022/08/11 05:08:20;;;;;;;10.20;8.10;;;;;;;24.12;50.93;102386.44;4874831;29;20041;-67
2022/08/11 05:11:16;;;;;;;11.43;7.83;;;;;;;24.08;51.04;102387.28;4874023;29;20041;-69
2022/08/11 05:36:45;;;;;;;13.20;8.07;;;;;;;24.48;50.47;102391.84;4931855;29;20079;-69
2022/08/11 05:56:19;;;;;;;8.93;7.63;;;;;;;24.56;50.00;102413.25;5015523;28;20044;-72
2022/08/11 05:58:53;;;;;;;8.73;7.53;;;;;;;24.92;49.12;102403.78;5030432;28;20072;-73
2022/08/11 06:01:30;;;;;;;8.02;7.03;;;;;;;25.03;48.91;102405.38;5030396;28;20114;-73
2022/08/11 06:04:13;;;;;;;8.32;6.93;;;;;;;25.07;48.46;102403.69;5030917;28;20036;-73
2022/08/11 06:06:51;;;;;;;8.63;7.22;;;;;;;25.06;48.75;102402.88;5030691;28;20045;-73
2022/08/11 06:09:26;;;;;;;10.25;7.75;;;;;;;24.58;49.55;102400.88;5030043;28;20037;-73
2022/08/11 06:11:55;;;;;;;9.68;7.40;;;;;;;25.18;48.10;102397.00;5030456;28;20519;-73
2022/08/11 06:14:22;;;;;;;10.20;7.18;;;;;;;25.12;47.90;102398.16;5029968;28;20393;-73
2022/08/11 06:16:52;;;;;;;10.23;7.82;;;;;;;25.19;48.11;102396.75;5016876;28;20030;-73
2022/08/11 06:19:21;;;;;;;8.68;7.22;;;;;;;25.33;47.38;102396.09;5010607;28;20409;-73
2022/08/11 06:21:50;;;;;;;13.07;7.00;;;;;;;25.45;47.79;102399.34;5010826;28;20069;-73
2022/08/11 06:24:16;;;;;;;8.05;6.68;;;;;;;25.58;47.07;102399.50;5010498;28;20057;-73
2022/08/11 06:26:47;;;;;;;7.72;6.93;;;;;;;25.62;47.17;102402.50;5008950;28;20501;-71
2022/08/11 06:29:17;;;;;;;13.85;7.90;;;;;;;25.52;47.32;102391.56;5008726;28;20045;-72
2022/08/11 06:31:54;;;;;;;9.45;7.35;;;;;;;25.67;47.26;102388.72;4980181;28;20030;-72
2022/08/11 06:34:50;;;;;;;9.43;5.88;;;;;;;25.76;46.90;102400.75;4991843;28;20473;-72
2022/08/11 06:37:42;;;;;;;8.88;6.60;;;;;;;25.88;46.62;102401.19;5012037;28;20044;-72
2022/08/11 06:40:29;;;;;;;8.88;6.07;;;;;;;25.98;46.13;102399.13;5011087;28;20366;-73
2022/08/11 06:43:02;;;;;;;7.88;6.22;;;;;;;26.03;46.39;102399.09;4914165;29;20166;-72
2022/08/11 06:45:36;;;;;;;9.32;5.55;;;;;;;26.12;46.14;102396.56;4914085;29;20554;-73
2022/08/11 06:48:05;;;;;;;12.50;6.40;;;;;;;26.08;46.04;102392.75;4914087;29;20091;-72
2022/08/11 06:53:18;;;;;;;7.32;5.85;;;;;;;26.28;45.17;102400.78;4913315;29;20106;-71
2022/08/11 07:01:49;;;;;;;15.00;6.18;;;;;;;26.68;44.42;102405.00;4915982;29;20051;-72
2022/08/11 07:04:27;;;;;;;9.05;5.65;;;;;;;26.81;44.05;102401.59;4922549;29;20052;-72
2022/08/11 07:15:42;;;;;;;7.43;5.13;;;;;;;27.19;43.17;102391.34;4896575;29;20095;-68
2022/08/11 07:29:31;;;;;;;5.30;3.70;;;;;;;27.57;41.08;102385.53;4994564;28;20042;-69
2022/08/11 07:32:02;;;;;;;4.25;3.47;;;;;;;27.67;41.41;102387.31;4994838;28;20142;-69
2022/08/11 07:34:33;;;;;;;5.20;3.67;;;;;;;27.75;40.52;102386.63;4997513;28;20042;-68
2022/08/11 07:37:08;;;;;;;4.32;2.67;;;;;;;27.84;40.22;102384.78;5014113;28;20037;-69
2022/08/11 07:39:36;;;;;;;3.00;1.85;;;;;;;27.88;39.28;102382.22;5013773;28;20038;-69
2022/08/11 07:42:07;;;;;;;4.50;2.13;;;;;;;28.20;38.58;102382.22;5013654;28;20111;-70
2022/08/11 07:48:10;;;;;;;4.97;2.00;;;;;;;28.07;37.40;102383.03;5013483;28;20038;-68
2022/08/11 07:52:51;;;;;;;3.28;1.92;;;;;;;28.75;36.75;102383.88;5013837;28;20117;-69
2022/08/11 07:55:18;;;;;;;5.35;1.75;;;;;;;28.81;36.32;102376.28;5013775;28;20113;-68
2022/08/11 08:19:54;;;;;;;1.80;1.17;;;;;;;30.13;31.97;102373.53;5029884;28;20052;-69
2022/08/11 08:22:20;;;;;;;2.70;1.42;;;;;;;30.17;31.98;102374.53;5014550;28;20033;-68
2022/08/11 08:24:47;;;;;;;2.22;1.45;;;;;;;30.26;31.28;102375.41;5028659;28;20536;-69
2022/08/11 08:27:14;;;;;;;1.27;1.15;;;;;;;30.41;31.11;102370.59;5032224;28;20037;-69
2022/08/11 08:32:27;;;;;;;3.05;1.02;;;;;;;30.83;30.34;102378.19;5005480;28;20069;-70
2022/08/11 08:34:54;;;;;;;2.25;1.23;;;;;;;31.03;30.22;102378.41;5006851;28;20026;-69
2022/08/11 08:37:22;;;;;;;2.53;1.35;;;;;;;31.11;29.81;102377.56;5009709;28;20065;-68
2022/08/11 08:39:49;;;;;;;5.05;1.52;;;;;;;30.74;30.41;102378.16;5007051;28;20029;-68
2022/08/11 08:42:28;;;;;;;5.85;1.55;;;;;;;31.09;29.17;102374.31;5000393;28;20043;-69
2022/08/11 08:45:17;;;;;;;6.88;1.23;;;;;;;31.49;28.25;102374.97;5003131;28;20042;-69
2022/08/11 08:48:05;;;;;;;7.07;1.75;;;;;;;31.46;28.10;102374.81;5000109;28;20121;-68
2022/08/11 08:51:33;;;;;;;3.50;1.48;;;;;;;31.70;27.39;102369.53;5002699;28;20034;-68
2022/08/11 08:53:28;;;;;;;1.85;1.27;;;;;;;31.79;27.86;102370.31;4997601;28;20038;-69
2022/08/11 08:55:57;;;;;;;3.85;1.10;;;;;;;31.75;27.46;102372.13;5003102;28;20403;-68
2022/08/11 08:58:24;;;;;;;6.00;1.42;;;;;;;32.07;27.19;102365.19;4999391;28;20041;-70
2022/08/11 09:00:53;;;;;;;2.20;1.45;;;;;;;32.15;27.68;102364.34;5005236;28;20018;-67
2022/08/11 09:03:19;;;;;;;3.70;1.45;;;;;;;31.76;27.06;102366.25;4998568;28;20121;-68
2022/08/11 09:05:46;;;;;;;5.55;1.13;;;;;;;32.25;26.83;102364.78;5001337;28;20116;-67
2022/08/11 09:08:13;;;;;;;4.38;1.58;;;;;;;32.38;26.49;102360.13;5002369;28;20026;-68
2022/08/11 09:10:39;;;;;;;7.05;1.15;;;;;;;32.73;26.04;102364.38;5003745;28;20034;-69
2022/08/11 09:13:07;;;;;;;4.78;1.38;;;;;;;33.01;25.44;102367.47;4998695;28;20077;-68
2022/08/11 09:15:32;;;;;;;6.28;1.63;;;;;;;33.08;25.77;102368.53;5002405;28;20037;-67
2022/08/11 09:18:04;;;;;;;8.52;1.30;;;;;;;33.28;25.86;102367.72;5000724;28;20044;-67
2022/08/11 09:20:33;;;;;;;2.22;1.65;;;;;;;33.37;25.85;102365.69;5001503;28;20042;-66
2022/08/11 09:28:35;;;;;;;4.68;1.15;;;;;;;33.26;24.28;102358.88;4999540;28;20165;-67
2022/08/11 09:31:02;;;;;;;3.03;0.98;;;;;;;33.64;23.73;102353.13;4999666;28;20038;-67
2022/08/11 09:33:30;;;;;;;5.82;1.48;;;;;;;33.38;24.11;102358.94;4998973;28;20070;-67
2022/08/11 09:35:57;;;;;;;6.05;1.67;;;;;;;33.62;23.42;102349.88;4999517;28;20038;-68
2022/08/11 09:41:12;;;;;;;3.97;1.27;;;;;;;34.15;22.54;102352.53;5004005;28;20049;-67
2022/08/11 09:46:29;;;;;;;2.85;1.50;;;;;;;34.58;21.80;102340.78;5001827;28;20175;-68
2022/08/11 09:48:58;;;;;;;2.53;1.40;;;;;;;34.68;21.47;102331.09;5002724;28;20401;-68
2022/08/11 09:51:28;;;;;;;4.05;1.20;;;;;;;34.54;21.57;102336.28;4999894;28;20035;-68
2022/08/11 09:53:54;;;;;;;2.30;1.10;;;;;;;34.67;21.88;102338.69;4999601;28;20050;-68
2022/08/11 09:59:07;;;;;;;5.07;1.55;;;;;;;35.05;20.96;102341.03;4996227;28;20049;-67
2022/08/11 10:01:39;;;;;;;10.45;1.70;;;;;;;35.13;20.65;102340.06;5001480;28;20672;-68
2022/08/11 10:04:23;;;;;;;3.80;1.50;;;;;;;35.17;20.98;102333.44;5001112;28;20426;-66
2022/08/11 10:07:01;;;;;;;9.27;1.52;;;;;;;35.24;19.90;102338.41;5001199;28;20045;-67
2022/08/11 10:10:21;;;;;;;1.63;1.08;;;;;;;35.56;19.77;102337.31;4991246;28;20263;-67
2022/08/11 10:12:49;;;;;;;2.95;1.20;;;;;;;35.07;20.01;102321.94;4983901;28;20082;-67
2022/08/11 10:15:33;;;;;;;11.45;0.98;;;;;;;34.81;19.44;102330.72;4980932;28;20031;-66
2022/08/11 10:21:01;;;;;;;2.95;1.25;;;;;;;35.84;17.88;102326.06;4983010;28;20061;-67
2022/08/11 10:33:58;;;;;;;3.17;1.13;;;;;;;35.57;17.37;102321.38;5011695;28;20053;-67
2022/08/11 10:34:39;;;;;;;7.00;1.77;;;;;;;36.19;16.71;102322.19;5011794;28;20052;-68
2022/08/11 10:37:06;;;;;;;3.63;1.10;;;;;;;36.43;16.92;102318.38;5011942;28;20099;-66
2022/08/11 10:39:31;;;;;;;1.70;0.73;;;;;;;36.37;16.74;102325.41;5011700;28;20224;-67
2022/08/11 10:44:49;;;;;;;3.20;0.98;;;;;;;36.65;16.18;102314.06;5007725;28;20106;-68
2022/08/11 10:47:34;;;;;;;1.73;1.35;;;;;;;37.00;16.29;102312.88;4982438;28;20800;-67
2022/08/11 11:01:11;;;;;;;3.10;1.00;;;;;;;36.56;16.26;102299.47;4998688;28;20121;-66
2022/08/11 11:03:37;;;;;;;2.08;0.77;;;;;;;36.08;16.72;102309.13;4998805;28;20555;-67
2022/08/11 11:06:27;;;;;;;2.63;0.80;;;;;;;36.89;16.49;102291.41;5018750;28;20041;-67
2022/08/11 11:08:59;;;;;;;3.50;0.80;;;;;;;37.91;15.64;102296.19;5000488;28;20047;-66
2022/08/11 11:19:54;;;;;;;8.95;0.93;;;;;;;37.60;15.46;102285.19;5001565;28;20517;-66
2022/08/11 11:22:38;;;;;;;1.55;1.10;;;;;;;37.61;15.13;102284.81;5004815;28;20080;-66
2022/08/11 11:25:19;;;;;;;4.10;1.00;;;;;;;37.58;15.82;102279.94;4998749;28;20033;-67
2022/08/11 11:27:58;;;;;;;2.00;0.75;;;;;;;37.95;15.47;102276.56;4998654;28;20050;-66
2022/08/11 11:30:31;;;;;;;1.67;0.80;;;;;;;37.46;15.31;102277.34;4998781;28;20026;-66
2022/08/11 11:33:05;;;;;;;2.58;0.98;;;;;;;38.29;15.64;102272.72;4999440;28;20125;-66
2022/08/11 11:35:59;;;;;;;0.90;0.57;;;;;;;37.31;14.96;102269.84;4984285;28;20034;-67
2022/08/11 11:38:27;;;;;;;2.88;1.10;;;;;;;37.86;15.42;102270.44;4999747;28;20356;-66
2022/08/11 11:43:41;;;;;;;6.15;0.90;;;;;;;38.56;14.25;102268.69;4967200;28;20050;-65
2022/08/11 11:46:08;;;;;;;1.50;0.82;;;;;;;37.82;15.04;102268.34;4969606;28;20042;-66
2022/08/11 11:48:35;;;;;;;2.25;0.80;;;;;;;38.69;14.44;102261.66;4971388;28;20108;-68
2022/08/11 11:51:02;;;;;;;1.13;0.60;;;;;;;38.83;13.77;102261.00;4966689;28;20530;-67
2022/08/11 11:53:28;;;;;;;1.65;0.80;;;;;;;38.60;14.06;102261.09;4966659;28;20547;-66
2022/08/11 11:55:55;;;;;;;1.98;0.93;;;;;;;38.75;14.17;102256.50;4966938;28;20031;-67
2022/08/11 12:01:15;;;;;;;2.28;1.00;;;;;;;38.67;14.24;102252.78;4967041;28;20532;-67
2022/08/11 12:03:45;;;;;;;2.75;1.10;;;;;;;39.32;14.14;102244.69;4965529;28;20042;-66
2022/08/11 12:06:13;;;;;;;1.70;0.80;;;;;;;38.94;13.96;102245.88;4971163;28;20607;-67
2022/08/11 12:08:40;;;;;;;2.35;1.15;;;;;;;39.69;13.80;102242.63;4966209;28;20093;-66
2022/08/11 12:13:57;;;;;;;3.95;0.75;;;;;;;39.73;13.12;102235.03;4966526;28;20115;-65
2022/08/11 12:16:23;;;;;;;2.27;0.80;;;;;;;39.74;13.44;102247.09;4966899;28;20138;-66
2022/08/11 12:18:55;;;;;;;8.75;0.90;;;;;;;40.11;13.13;102237.34;4966702;28;20469;-66
2022/08/11 12:21:22;;;;;;;1.52;0.70;;;;;;;39.58;12.47;102232.50;4991059;28;20129;-66
2022/08/11 12:29:26;;;;;;;3.00;1.10;;;;;;;39.18;12.79;102231.31;4964361;28;20522;-67
2022/08/11 12:31:53;;;;;;;2.08;0.90;;;;;;;38.99;12.62;102225.84;4965701;28;20097;-66
2022/08/11 12:34:19;;;;;;;1.38;0.55;;;;;;;39.28;12.84;102224.97;4965412;28;20053;-67
2022/08/11 12:36:58;;;;;;;1.00;0.70;;;;;;;38.53;13.28;102218.84;4941953;28;20023;-68
2022/08/11 12:53:26;;;;;;;2.95;0.80;;;;;;;40.32;12.85;102192.38;4966268;28;20077;-67
2022/08/11 12:58:41;;;;;;;1.35;0.70;;;;;;;39.96;12.84;102193.38;4966092;28;20150;-67
2022/08/11 13:06:37;;;;;;;5.45;0.80;;;;;;;40.28;13.17;102179.44;4995497;28;20048;-66
2022/08/11 13:09:05;;;;;;;3.05;0.80;;;;;;;39.29;13.32;102178.75;5002188;28;20076;-66
2022/08/11 13:14:16;;;;;;;1.95;0.95;;;;;;;39.59;12.83;102172.19;4997890;28;20092;-68
2022/08/11 13:19:29;;;;;;;2.25;0.90;;;;;;;39.57;13.36;102171.78;4997739;28;20406;-68
2022/08/11 13:21:56;;;;;;;1.92;0.98;;;;;;;40.04;12.72;102154.81;5000474;28;20030;-67
2022/08/11 13:24:22;;;;;;;2.50;0.90;;;;;;;40.76;12.39;102166.78;5001752;28;20609;-67
2022/08/11 13:26:49;;;;;;;6.63;1.00;;;;;;;40.36;12.68;102172.66;5019271;28;20067;-68
2022/08/11 13:29:17;;;;;;;3.45;1.33;;;;;;;40.31;13.28;102162.59;5020339;28;20037;-66
2022/08/11 13:31:44;;;;;;;8.43;1.45;;;;;;;40.18;13.12;102146.41;5022154;28;20108;-66
2022/08/11 13:34:10;;;;;;;3.53;1.00;;;;;;;40.64;12.99;102161.50;5024404;28;20184;-66
2022/08/11 13:36:36;;;;;;;3.13;1.10;;;;;;;39.60;13.40;102162.53;5030343;28;20128;-67
2022/08/11 13:39:02;;;;;;;1.23;0.80;;;;;;;38.99;14.63;102158.38;5022476;28;20041;-67
2022/08/11 13:41:38;;;;;;;2.42;1.00;;;;;;;38.33;14.83;102167.63;5017801;28;20038;-69
2022/08/11 13:44:08;;;;;;;3.83;1.00;;;;;;;39.87;14.12;102156.28;5001154;28;20089;-69
2022/08/11 13:46:35;;;;;;;2.97;1.30;;;;;;;40.55;13.32;102161.09;5014671;28;20084;-66
2022/08/11 13:49:02;;;;;;;2.75;1.30;;;;;;;40.53;12.90;102162.69;5010453;28;20130;-67
2022/08/11 13:51:32;;;;;;;2.05;0.90;;;;;;;40.52;13.37;102155.41;5022959;28;20040;-67
2022/08/11 13:53:58;;;;;;;5.40;1.42;;;;;;;39.96;13.26;102155.97;5022326;28;20045;-66
2022/08/11 13:56:26;;;;;;;2.15;1.02;;;;;;;40.25;14.00;102152.91;5023359;28;20022;-66
2022/08/11 13:58:53;;;;;;;2.08;0.95;;;;;;;40.68;12.83;102142.59;5023378;28;20505;-67
2022/08/11 14:01:19;;;;;;;3.92;0.82;;;;;;;39.98;13.33;102145.13;5020300;28;20296;-67
2022/08/11 14:03:48;;;;;;;3.22;1.00;;;;;;;40.87;12.75;102141.41;5023962;28;20084;-66
2022/08/11 14:06:18;;;;;;;1.92;0.82;;;;;;;40.52;12.70;102142.13;5022082;28;20029;-67
2022/08/11 14:08:44;;;;;;;3.88;1.08;;;;;;;40.34;13.38;102144.88;5020105;28;20485;-67
2022/08/11 14:13:57;;;;;;;2.55;1.15;;;;;;;41.06;12.90;102146.69;5021895;28;20048;-67
2022/08/11 14:16:31;;;;;;;2.03;0.98;;;;;;;41.52;12.19;102136.19;5022190;28;20033;-66
2022/08/11 14:19:02;;;;;;;1.75;1.00;;;;;;;40.77;12.81;102133.75;5019101;28;20080;-66
2022/08/11 14:24:17;;;;;;;3.78;1.20;;;;;;;40.46;12.70;102134.44;5005585;28;20087;-67
2022/08/11 14:26:44;;;;;;;2.38;0.90;;;;;;;40.97;13.18;102132.16;5007843;28;20124;-67
2022/08/11 14:29:15;;;;;;;1.17;0.85;;;;;;;41.14;12.39;102134.22;5008230;28;20027;-67
2022/08/11 14:31:47;;;;;;;1.02;0.85;;;;;;;40.11;13.12;102133.13;5009046;28;20431;-67
2022/08/11 14:34:13;;;;;;;1.35;1.00;;;;;;;40.77;12.87;102130.94;5008181;28;20037;-67
2022/08/11 14:36:44;;;;;;;2.38;0.90;;;;;;;40.81;12.46;102135.38;5013497;28;20030;-68
2022/08/11 14:39:11;;;;;;;1.88;0.70;;;;;;;41.12;12.20;102137.41;5007632;28;20064;-67
2022/08/11 14:47:14;;;;;;;2.60;0.80;;;;;;;40.56;12.99;102128.84;5008968;28;20041;-66
2022/08/11 14:49:41;;;;;;;4.65;0.82;;;;;;;40.97;13.28;102124.50;5008642;28;20045;-66
2022/08/11 14:52:13;;;;;;;0.98;0.68;;;;;;;40.15;12.98;102122.66;5011291;28;20044;-66
2022/08/11 14:57:28;;;;;;;1.17;0.60;;;;;;;40.65;12.70;102117.22;5011659;28;20049;-66
2022/08/11 14:59:56;;;;;;;2.50;0.90;;;;;;;41.25;12.71;102112.47;5014967;28;20042;-65
2022/08/11 15:05:07;;;;;;;1.63;0.60;;;;;;;41.08;12.53;102110.44;5013527;28;20071;-66
2022/08/11 15:07:33;;;;;;;5.22;0.80;;;;;;;40.42;12.89;102108.28;5017044;28;20033;-66
2022/08/11 15:10:08;;;;;;;2.08;0.73;;;;;;;40.59;12.72;102107.53;5013730;28;20026;-68
2022/08/11 15:12:52;;;;;;;3.13;0.73;;;;;;;39.96;13.45;102108.88;5012859;28;20172;-67
2022/08/11 15:18:06;;;;;;;1.67;0.70;;;;;;;39.69;12.78;102095.47;5014086;28;20048;-67
2022/08/11 15:26:06;;;;;;;3.13;0.55;;;;;;;41.11;11.97;102084.22;5013923;28;20045;-67
2022/08/11 15:45:46;;;;;;;5.20;0.60;;;;;;;42.01;11.51;102075.19;5017280;28;20049;-67
2022/08/11 15:48:08;;;;;;;1.98;0.43;;;;;;;40.96;11.83;102072.16;5019867;28;20565;-67
2022/08/11 15:50:39;;;;;;;2.65;0.50;;;;;;;40.73;12.10;102071.69;5016027;28;20116;-66
2022/08/11 15:53:15;;;;;;;4.53;0.70;;;;;;;41.43;11.76;102050.31;5017312;28;20045;-68
2022/08/11 15:55:42;;;;;;;3.95;0.70;;;;;;;41.78;10.99;102056.69;5015485;28;20112;-66
2022/08/11 16:04:13;;;;;;;5.07;0.65;;;;;;;41.59;10.89;102040.22;4997194;28;20089;-67
2022/08/11 16:07:02;;;;;;;1.00;0.50;;;;;;;41.34;11.18;102053.56;5013511;28;20045;-68
2022/08/11 16:09:40;;;;;;;;;;;;;;;42.40;10.55;102045.47;5015875;28;20367;-68
2022/08/11 16:12:09;;;;;;;1.83;0.63;;;;;;;41.72;11.50;102044.22;4998228;28;19925;-66
2022/08/11 16:17:25;;;;;;;3.28;0.80;;;;;;;41.59;11.92;102033.75;5016127;28;19919;-67
2022/08/11 16:19:53;;;;;;;1.33;0.70;;;;;;;41.56;11.48;102028.91;5008961;28;20053;-68
2022/08/11 16:22:30;;;;;;;1.67;0.50;;;;;;;40.06;11.91;102028.47;5003026;28;20026;-68
2022/08/11 16:24:57;;;;;;;2.55;0.82;;;;;;;40.83;12.14;102031.44;4998943;28;20030;-68
2022/08/11 16:27:24;;;;;;;0.60;0.40;;;;;;;40.50;12.18;102033.81;4995954;28;20054;-67
2022/08/11 16:29:51;;;;;;;0.98;0.50;;;;;;;41.73;11.39;102028.09;4995404;28;20030;-67
2022/08/11 16:32:23;;;;;;;2.83;0.70;;;;;;;41.45;12.13;102028.97;4999587;28;20042;-67
2022/08/11 16:40:30;;;;;;;5.25;0.43;;;;;;;40.89;12.35;102021.34;5002992;28;20374;-68
2022/08/11 16:48:34;;;;;;;1.85;0.60;;;;;;;40.72;12.22;102027.78;4946969;29;20126;-67
2022/08/11 16:51:00;;;;;;;0.90;0.60;;;;;;;40.33;12.75;102024.91;4964839;28;20054;-67
2022/08/11 16:53:28;;;;;;;4.50;0.60;;;;;;;40.55;12.43;102013.69;4961865;28;20067;-66
2022/08/11 16:55:54;;;;;;;2.53;0.50;;;;;;;40.57;12.93;102019.72;4971714;28;20041;-67
2022/08/11 17:01:08;;;;;;;0.82;0.50;;;;;;;39.90;12.76;102020.34;4945893;28;20041;-67
2022/08/11 17:14:56;;;;;;;2.42;0.50;;;;;;;39.10;14.13;102013.03;4951130;29;20054;-67
2022/08/11 17:17:28;;;;;;;2.92;0.80;;;;;;;39.12;14.05;102012.63;4968112;28;20069;-67